createdAt,value
2022-08-30T00:01:29.617Z,102040.75
2022-08-30T00:04:31.329Z,102040.00
2022-08-30T00:07:33.067Z,102032.13
2022-08-30T00:10:35.406Z,102035.03
2022-08-30T00:13:38.617Z,102034.47
2022-08-30T00:16:40.311Z,102031.03
2022-08-30T00:19:41.967Z,102036.59
2022-08-30T00:22:43.898Z,102033.47
2022-08-30T00:25:45.935Z,102029.56
2022-08-30T00:28:47.548Z,102031.13
2022-08-30T00:31:49.135Z,102032.47
2022-08-30T00:34:52.339Z,102040.94
2022-08-30T00:37:53.940Z,102041.31
2022-08-30T00:40:55.835Z,102039.81
2022-08-30T00:43:57.713Z,102040.94
2022-08-30T00:47:02.887Z,102039.63
2022-08-30T00:50:08.450Z,102044.53
2022-08-30T00:53:16.391Z,102048.47
2022-08-30T00:56:18.909Z,102048.00
2022-08-30T00:59:22.011Z,102048.38
2022-08-30T01:02:25.616Z,102047.03
2022-08-30T01:05:27.448Z,102058.13
2022-08-30T01:08:29.056Z,102054.91
2022-08-30T01:11:34.185Z,102056.91
2022-08-30T01:14:35.872Z,102055.44
2022-08-30T01:17:43.680Z,102055.06
2022-08-30T01:21:10.315Z,102048.50
2022-08-30T01:24:12.671Z,102053.66
2022-08-30T01:27:16.672Z,102046.09
2022-08-30T01:30:18.778Z,102041.22
2022-08-30T01:33:21.470Z,102038.88
2022-08-30T01:36:24.792Z,102054.09
2022-08-30T01:39:26.624Z,102052.38
2022-08-30T01:42:28.506Z,102048.75
2022-08-30T01:45:30.111Z,102051.50
2022-08-30T01:48:31.724Z,102052.38
2022-08-30T01:51:34.348Z,102057.63
2022-08-30T01:54:38.537Z,102057.72
2022-08-30T01:57:40.177Z,102060.41
2022-08-30T02:00:41.850Z,102063.94
2022-08-30T02:03:44.931Z,102050.63
2022-08-30T02:06:47.133Z,102049.81
2022-08-30T02:09:48.703Z,102055.22
2022-08-30T02:12:50.453Z,102053.53
2022-08-30T02:15:54.480Z,102058.94
2022-08-30T02:18:58.921Z,102065.25
2022-08-30T02:22:00.664Z,102059.22
2022-08-30T02:25:02.439Z,102054.91
2022-08-30T02:28:05.861Z,102053.28
2022-08-30T02:31:08.165Z,102056.13
2022-08-30T02:34:09.815Z,102059.00
2022-08-30T02:37:11.496Z,102051.06
2022-08-30T02:40:13.287Z,102046.75
2022-08-30T02:43:15.174Z,102049.53
2022-08-30T02:46:18.017Z,102055.91
2022-08-30T02:49:35.204Z,102056.84
2022-08-30T02:52:38.300Z,102059.69
2022-08-30T02:55:39.851Z,102056.25
2022-08-30T02:58:43.477Z,102058.16
2022-08-30T03:01:45.417Z,102049.38
2022-08-30T03:04:47.073Z,102045.06
2022-08-30T03:07:48.641Z,102051.44
2022-08-30T03:10:50.412Z,102054.28
2022-08-30T03:13:51.960Z,102050.97
2022-08-30T03:16:54.353Z,102051.03
2022-08-30T03:19:56.125Z,102047.69
2022-08-30T03:22:58.004Z,102053.09
2022-08-30T03:25:59.755Z,102046.97
2022-08-30T03:29:01.353Z,102044.44
2022-08-30T03:32:03.893Z,102041.94
2022-08-30T03:35:07.101Z,102058.19
2022-08-30T03:38:08.732Z,102053.00
2022-08-30T03:41:10.418Z,102049.56
2022-08-30T03:44:12.096Z,102046.94
2022-08-30T03:47:13.660Z,102057.75
2022-08-30T03:50:16.311Z,102054.19
2022-08-30T03:53:18.031Z,102047.22
2022-08-30T03:56:19.981Z,102055.22
2022-08-30T03:59:22.037Z,102047.38
2022-08-30T04:02:23.699Z,102057.25
2022-08-30T04:05:25.394Z,102060.06
2022-08-30T04:08:27.769Z,102059.19
2022-08-30T04:11:29.405Z,102070.91
2022-08-30T04:14:31.120Z,102058.44
2022-08-30T04:17:32.696Z,102073.69
2022-08-30T04:20:34.699Z,102064.88
2022-08-30T04:23:36.280Z,102057.81
2022-08-30T04:26:38.140Z,102059.63
2022-08-30T04:29:39.689Z,102055.31
2022-08-30T04:32:41.552Z,102052.66
2022-08-30T04:35:45.531Z,102046.44
2022-08-30T04:38:47.105Z,102047.41
2022-08-30T04:41:48.759Z,102049.22
2022-08-30T04:44:50.994Z,102063.34
2022-08-30T04:47:52.537Z,102055.31
2022-08-30T04:50:58.045Z,102058.75
2022-08-30T04:53:59.598Z,102055.06
2022-08-30T04:57:01.818Z,102060.41
2022-08-30T05:00:07.193Z,102055.81
2022-08-30T05:03:09.653Z,102054.91
2022-08-30T05:06:12.507Z,102054.78
2022-08-30T05:09:14.182Z,102062.81
2022-08-30T05:12:15.769Z,102065.41
2022-08-30T05:15:17.363Z,102070.59
2022-08-30T05:18:19.160Z,102074.81
2022-08-30T05:21:25.486Z,102073.69
2022-08-30T05:24:27.093Z,102076.03
2022-08-30T05:27:29.484Z,102079.19
2022-08-30T05:30:34.060Z,102081.63
2022-08-30T05:33:38.748Z,102071.75
2022-08-30T05:36:40.974Z,102080.44
2022-08-30T05:39:51.428Z,102082.16
2022-08-30T05:42:53.921Z,102083.63
2022-08-30T05:46:04.141Z,102083.25
2022-08-30T05:49:07.255Z,102084.75
2022-08-30T05:52:08.791Z,102087.19
2022-08-30T05:55:12.026Z,102093.19
2022-08-30T05:58:13.648Z,102084.16
2022-08-30T06:01:22.805Z,102081.56
2022-08-30T06:04:25.034Z,102084.66
2022-08-30T06:07:26.961Z,102082.31
2022-08-30T06:10:28.703Z,102081.84
2022-08-30T06:13:30.383Z,102082.34
2022-08-30T06:16:32.535Z,102087.78
2022-08-30T06:19:34.221Z,102082.53
2022-08-30T06:22:36.399Z,102090.28
2022-08-30T06:25:41.351Z,102076.56
2022-08-30T06:28:44.218Z,102082.69
2022-08-30T06:31:46.391Z,102094.22
2022-08-30T06:34:48.917Z,102092.09
2022-08-30T06:37:50.485Z,102102.41
2022-08-30T06:40:52.146Z,102106.81
2022-08-30T06:43:54.225Z,102103.09
2022-08-30T06:46:56.111Z,102108.16
2022-08-30T06:49:58.417Z,102106.16
2022-08-30T06:53:05.846Z,102103.91
2022-08-30T06:56:10.483Z,102105.28
2022-08-30T06:59:12.248Z,102107.56
2022-08-30T07:02:14.053Z,102117.81
2022-08-30T07:05:18.773Z,102120.47
2022-08-30T07:08:21.167Z,102115.13
2022-08-30T07:11:41.132Z,102123.06
2022-08-30T07:14:43.114Z,102115.88
2022-08-30T07:18:03.116Z,102124.56
2022-08-30T07:21:15.165Z,102122.44
2022-08-30T07:24:16.998Z,102124.75
2022-08-30T07:27:18.912Z,102121.00
2022-08-30T07:30:20.576Z,102114.88
2022-08-30T07:33:22.257Z,102121.38
2022-08-30T07:36:25.089Z,102118.81
2022-08-30T07:39:26.656Z,102117.06
2022-08-30T07:42:28.237Z,102121.56
2022-08-30T07:45:30.048Z,102119.75
2022-08-30T07:48:31.757Z,102121.56
2022-08-30T07:51:33.701Z,102125.88
2022-08-30T07:54:35.249Z,102124.06
2022-08-30T07:57:36.915Z,102124.81
2022-08-30T08:00:38.577Z,102127.00
2022-08-30T08:03:42.222Z,102123.81
2022-08-30T08:06:45.385Z,102124.47
2022-08-30T08:09:47.009Z,102129.41
2022-08-30T08:12:48.630Z,102128.16
2022-08-30T08:15:50.656Z,102135.91
2022-08-30T08:18:54.205Z,102135.69
2022-08-30T08:22:19.635Z,102134.63
2022-08-30T08:25:19.369Z,102139.69
2022-08-30T08:28:21.289Z,102133.47
2022-08-30T08:31:27.372Z,102131.34
2022-08-30T08:34:36.358Z,102131.81
2022-08-30T08:37:39.571Z,102117.75
2022-08-30T08:40:53.053Z,102124.22
2022-08-30T08:43:54.669Z,102125.50
2022-08-30T08:47:19.764Z,102120.59
2022-08-30T08:50:22.176Z,102121.00
2022-08-30T08:53:45.796Z,102130.28
2022-08-30T08:56:48.767Z,102120.69
2022-08-30T08:59:54.255Z,102119.06
2022-08-30T09:03:01.441Z,102121.75
2022-08-30T09:06:15.687Z,102130.03
2022-08-30T09:09:23.533Z,102125.59
2022-08-30T09:12:25.137Z,102131.19
2022-08-30T09:15:31.189Z,102124.91
2022-08-30T09:18:45.463Z,102133.03
2022-08-30T09:21:57.621Z,102132.47
2022-08-30T09:25:01.621Z,102137.44
2022-08-30T09:28:16.473Z,102130.84
2022-08-30T09:31:23.728Z,102125.09
2022-08-30T09:34:25.515Z,102134.22
2022-08-30T09:37:47.622Z,102131.72
2022-08-30T09:40:53.378Z,102137.50
2022-08-30T09:44:28.029Z,102133.38
2022-08-30T09:47:31.890Z,102138.06
2022-08-30T09:50:36.909Z,102141.03
2022-08-30T09:57:33.685Z,102129.59
2022-08-30T10:00:42.433Z,102124.88
2022-08-30T10:03:46.787Z,102119.84
2022-08-30T10:07:28.986Z,102123.06
2022-08-30T10:10:30.867Z,102123.78
2022-08-30T10:13:35.416Z,102122.69
2022-08-30T10:17:01.575Z,102117.03
2022-08-30T10:20:16.136Z,102108.34
2022-08-30T10:23:33.848Z,102114.47
2022-08-30T10:26:40.486Z,102115.66
2022-08-30T10:30:00.868Z,102117.03
2022-08-30T10:33:02.537Z,102108.78
2022-08-30T10:36:10.451Z,102099.19
2022-08-30T10:39:22.375Z,102111.59
2022-08-30T10:42:37.995Z,102104.84
2022-08-30T10:45:45.685Z,102109.09
2022-08-30T10:48:48.118Z,102095.66
2022-08-30T10:51:59.072Z,102092.13
2022-08-30T10:55:08.548Z,102108.69
2022-08-30T10:58:12.775Z,102101.13
2022-08-30T11:01:32.929Z,102100.97
2022-08-30T11:05:02.440Z,102105.28
2022-08-30T11:08:05.201Z,102103.03
2022-08-30T11:11:21.372Z,102096.13
2022-08-30T11:14:25.364Z,102091.16
2022-08-30T11:17:29.675Z,102094.56
2022-08-30T11:20:39.983Z,102093.44
2022-08-30T11:23:41.604Z,102099.19
2022-08-30T11:26:48.418Z,102103.00
2022-08-30T11:29:50.086Z,102101.41
2022-08-30T11:33:10.271Z,102089.94
2022-08-30T11:36:37.443Z,102082.97
2022-08-30T11:39:48.989Z,102083.06
2022-08-30T11:42:52.610Z,102084.81
2022-08-30T11:46:28.789Z,102076.63
2022-08-30T11:49:56.837Z,102072.13
2022-08-30T11:53:04.325Z,102070.84
2022-08-30T11:56:33.513Z,102066.63
2022-08-30T12:00:02.049Z,102064.50
2022-08-30T12:03:07.689Z,102062.81
2022-08-30T12:06:12.685Z,102053.91
2022-08-30T12:09:20.364Z,102053.91
2022-08-30T12:12:30.637Z,102054.75
2022-08-30T12:15:53.679Z,102051.03
2022-08-30T12:19:00.892Z,102052.78
2022-08-30T12:22:08.322Z,102053.19
2022-08-30T12:25:31.981Z,102059.56
2022-08-30T12:28:33.764Z,102054.69
2022-08-30T12:31:42.445Z,102061.06
2022-08-30T12:34:44.070Z,102054.69
2022-08-30T12:37:57.025Z,102052.84
2022-08-30T12:41:02.225Z,102056.94
2022-08-30T12:44:13.374Z,102040.56
2022-08-30T12:47:19.919Z,102048.69
2022-08-30T12:50:29.923Z,102037.31
2022-08-30T12:53:33.442Z,102039.09
2022-08-30T12:57:34.891Z,102032.09
2022-08-30T13:00:41.803Z,102029.53
2022-08-30T13:03:53.497Z,102016.53
2022-08-30T13:06:58.548Z,102026.78
2022-08-30T13:10:19.890Z,102017.06
2022-08-30T13:13:35.029Z,102013.81
2022-08-30T13:16:40.313Z,102012.78
2022-08-30T13:20:07.201Z,102015.91
2022-08-30T13:23:11.093Z,102010.50
2022-08-30T13:26:13.024Z,102023.38
2022-08-30T13:29:26.830Z,102009.16
2022-08-30T13:32:29.228Z,102004.56
2022-08-30T13:35:31.748Z,102007.00
2022-08-30T13:38:33.500Z,102007.44
2022-08-30T13:41:38.360Z,102002.31
2022-08-30T13:44:42.268Z,101998.97
2022-08-30T13:47:46.955Z,101998.47
2022-08-30T13:50:48.510Z,101995.47
2022-08-30T13:53:52.544Z,101994.13
2022-08-30T13:56:55.457Z,101989.00
2022-08-30T13:59:57.188Z,101998.22
2022-08-30T14:03:00.176Z,102000.22
2022-08-30T14:06:33.888Z,101996.66
2022-08-30T14:09:23.752Z,101997.50
2022-08-30T14:15:49.228Z,101995.41
2022-08-30T14:18:51.328Z,102003.69
2022-08-30T14:21:52.944Z,102005.13
2022-08-30T14:24:54.556Z,102012.97
2022-08-30T14:27:57.042Z,102006.44
2022-08-30T14:30:58.640Z,102015.41
2022-08-30T14:34:01.939Z,102003.28
2022-08-30T14:37:06.819Z,102003.88
2022-08-30T14:40:09.215Z,101999.59
2022-08-30T14:43:10.872Z,101998.63
2022-08-30T14:46:12.699Z,102002.31
2022-08-30T14:49:15.704Z,102001.72
2022-08-30T14:52:17.252Z,102007.28
2022-08-30T14:55:19.166Z,102002.28
2022-08-30T14:58:20.850Z,101993.16
2022-08-30T15:01:22.821Z,102001.72
2022-08-30T15:04:24.686Z,102002.44
2022-08-30T15:07:26.972Z,102004.59
2022-08-30T15:10:28.709Z,102003.13
2022-08-30T15:13:30.332Z,102004.56
2022-08-30T15:16:35.946Z,102003.69
2022-08-30T15:19:39.436Z,101997.69
2022-08-30T15:22:41.334Z,102000.53
2022-08-30T15:25:47.697Z,102007.97
2022-08-30T15:28:50.203Z,102001.53
2022-08-30T15:31:52.179Z,101998.97
2022-08-30T15:34:56.025Z,101994.53
2022-08-30T15:37:57.765Z,101997.13
2022-08-30T15:41:04.156Z,101998.13
2022-08-30T15:44:06.781Z,102002.81
2022-08-30T15:47:08.690Z,101996.53
2022-08-30T15:50:10.341Z,101994.81
2022-08-30T15:53:12.266Z,101990.25
2022-08-30T15:56:14.951Z,101990.97
2022-08-30T15:59:18.499Z,101994.53
2022-08-30T16:02:21.335Z,101987.72
2022-08-30T16:05:29.408Z,101984.56
2022-08-30T16:08:31.121Z,101985.72
2022-08-30T16:11:32.753Z,101986.69
2022-08-30T16:14:34.869Z,101983.44
2022-08-30T16:17:36.635Z,101982.56
2022-08-30T16:20:42.100Z,101985.28
2022-08-30T16:23:44.968Z,101984.41
2022-08-30T16:26:50.012Z,101987.97
2022-08-30T16:29:51.729Z,101987.69
2022-08-30T16:32:53.360Z,101983.88
2022-08-30T16:35:57.106Z,101979.16
2022-08-30T16:38:58.892Z,101981.72
2022-08-30T16:42:03.111Z,101981.88
2022-08-30T16:45:10.244Z,101982.13
2022-08-30T16:48:13.884Z,101978.72
2022-08-30T16:51:19.764Z,101978.72
2022-08-30T16:54:22.350Z,101975.16
2022-08-30T16:57:24.372Z,101974.59
2022-08-30T17:00:26.360Z,101974.00
2022-08-30T17:03:29.465Z,101969.72
2022-08-30T17:06:32.445Z,101978.97
2022-08-30T17:09:35.708Z,101973.09
2022-08-30T17:12:37.248Z,101977.19
2022-08-30T17:15:39.094Z,101973.34
2022-08-30T17:18:41.327Z,101981.00
2022-08-30T17:21:43.921Z,101980.56
2022-08-30T17:24:47.165Z,101982.97
2022-08-30T17:27:50.654Z,101981.81
2022-08-30T17:30:52.411Z,101984.19
2022-08-30T17:33:57.994Z,101996.38
2022-08-30T17:37:02.825Z,101994.25
2022-08-30T17:40:07.253Z,102007.16
2022-08-30T17:43:16.169Z,101997.00
2022-08-30T17:46:18.756Z,102008.34
2022-08-30T17:49:21.218Z,102014.13
2022-08-30T17:52:23.056Z,102009.84
2022-08-30T17:55:24.732Z,102019.66
2022-08-30T17:58:26.503Z,102020.66
2022-08-30T18:01:29.088Z,102025.47
2022-08-30T18:04:32.053Z,102025.88
2022-08-30T18:07:33.976Z,102033.34
2022-08-30T18:10:35.577Z,102039.16
2022-08-30T18:13:38.236Z,102041.16
2022-08-30T18:16:50.031Z,102052.91
2022-08-30T18:19:56.223Z,102057.84
2022-08-30T18:22:59.475Z,102046.47
2022-08-30T18:26:02.441Z,102060.38
2022-08-30T18:29:05.101Z,102066.28
2022-08-30T18:32:09.157Z,102074.75
2022-08-30T18:35:11.027Z,102072.56
2022-08-30T18:38:12.946Z,102066.97
2022-08-30T18:41:16.389Z,102073.13
2022-08-30T18:44:27.689Z,102083.59
2022-08-30T18:47:30.607Z,102085.22
2022-08-30T18:50:33.475Z,102095.06
2022-08-30T18:53:35.492Z,102097.50
2022-08-30T18:56:39.057Z,102091.75
2022-08-30T18:59:42.044Z,102101.94
2022-08-30T19:02:47.153Z,102100.72
2022-08-30T19:05:48.781Z,102108.56
2022-08-30T19:08:51.206Z,102106.50
2022-08-30T19:11:52.792Z,102102.81
2022-08-30T19:14:54.479Z,102105.16
2022-08-30T19:17:57.847Z,102099.50
2022-08-30T19:21:00.116Z,102104.06
2022-08-30T19:24:02.578Z,102103.75
2022-08-30T19:27:04.429Z,102106.31
2022-08-30T19:30:09.626Z,102107.88
2022-08-30T19:33:11.509Z,102108.63
2022-08-30T19:36:13.782Z,102106.88
2022-08-30T19:39:15.317Z,102109.53
2022-08-30T19:42:19.218Z,102117.56
2022-08-30T19:45:23.067Z,102117.28
2022-08-30T19:48:32.059Z,102120.53
2022-08-30T19:51:34.680Z,102130.03
2022-08-30T19:54:37.648Z,102130.47
2022-08-30T19:57:39.520Z,102124.94
2022-08-30T20:00:45.152Z,102129.69
2022-08-30T20:03:57.432Z,102125.28
2022-08-30T20:07:00.012Z,102125.72
2022-08-30T20:10:06.273Z,102131.56
2022-08-30T20:13:16.202Z,102125.88
2022-08-30T20:16:18.056Z,102133.66
2022-08-30T20:19:20.420Z,102128.72
2022-08-30T20:22:28.881Z,102129.69
2022-08-30T20:25:30.705Z,102132.84
2022-08-30T20:28:32.459Z,102132.31
2022-08-30T20:31:34.925Z,102134.56
2022-08-30T20:34:37.697Z,102145.59
2022-08-30T20:37:39.665Z,102141.63
2022-08-30T20:40:41.634Z,102146.47
2022-08-30T20:43:44.124Z,102144.00
2022-08-30T20:46:47.658Z,102143.47
2022-08-30T20:49:49.259Z,102141.97
2022-08-30T20:52:51.051Z,102157.44
2022-08-30T20:55:52.672Z,102165.84
2022-08-30T20:58:54.356Z,102167.03
2022-08-30T21:01:58.096Z,102165.63
2022-08-30T21:05:00.291Z,102163.25
2022-08-30T21:08:01.997Z,102160.97
2022-08-30T21:11:12.316Z,102175.59
2022-08-30T21:14:13.980Z,102165.25
2022-08-30T21:17:15.620Z,102167.31
2022-08-30T21:20:17.643Z,102166.75
2022-08-30T21:23:19.282Z,102174.25
2022-08-30T21:26:21.493Z,102178.97
2022-08-30T21:29:23.089Z,102188.28
2022-08-30T21:32:24.717Z,102179.38
2022-08-30T21:35:45.100Z,102189.25
2022-08-30T21:38:46.736Z,102177.94
2022-08-30T21:41:50.333Z,102194.38
2022-08-30T21:44:51.999Z,102192.00
2022-08-30T21:47:53.736Z,102189.59
2022-08-30T21:50:55.385Z,102187.13
2022-08-30T21:53:57.697Z,102181.84
2022-08-30T21:57:00.994Z,102181.94
2022-08-30T22:00:07.249Z,102181.19
2022-08-30T22:03:08.884Z,102184.06
2022-08-30T22:06:12.473Z,102189.66
2022-08-30T22:09:15.324Z,102195.31
2022-08-30T22:12:17.522Z,102194.00
2022-08-30T22:15:19.160Z,102185.78
2022-08-30T22:18:20.776Z,102193.16
2022-08-30T22:21:24.844Z,102196.91
2022-08-30T22:24:26.510Z,102198.16
2022-08-30T22:27:34.666Z,102195.84
2022-08-30T22:30:36.315Z,102198.94
2022-08-30T22:33:38.893Z,102196.75
2022-08-30T22:36:40.532Z,102199.88
2022-08-30T22:39:42.300Z,102203.91
2022-08-30T22:42:45.056Z,102200.81
2022-08-30T22:45:50.050Z,102194.78
2022-08-30T22:48:51.841Z,102200.25
2022-08-30T22:51:53.435Z,102209.34
2022-08-30T22:54:55.076Z,102209.91
2022-08-30T22:57:56.797Z,102214.69
2022-08-30T23:00:58.438Z,102209.81
2022-08-30T23:04:03.572Z,102212.94
2022-08-30T23:07:05.444Z,102209.56
2022-08-30T23:10:07.906Z,102215.31
2022-08-30T23:13:09.640Z,102204.00
2022-08-30T23:16:13.195Z,102206.19
2022-08-30T23:19:16.726Z,102224.16
2022-08-30T23:22:18.288Z,102225.97
2022-08-30T23:25:41.429Z,102221.47
2022-08-30T23:29:01.860Z,102226.19
2022-08-30T23:32:22.570Z,102224.72
2022-08-30T23:35:42.549Z,102222.63
2022-08-30T23:39:02.725Z,102218.91
2022-08-30T23:42:24.442Z,102216.97
2022-08-30T23:45:44.439Z,102220.78
2022-08-30T23:49:05.774Z,102211.00
2022-08-30T23:52:25.539Z,102212.31
2022-08-30T23:55:45.660Z,102211.09
2022-08-30T23:59:05.692Z,102208.09
